Terminal Aerodrome Forecast
Issued by NWS

Home | Current Version | Previous Version | Text Only | Print | Product List | Glossary Off
Versions: 1 2 3 4 5 6 7 8 9 10 11 12 13 14

000
FTUS42 KMHX 271737
TAFISO
TAF
KISO 271737Z 2718/2818 36006KT P6SM SCT025 SCT250
     FM272300 01003KT P6SM BKN015
      TEMPO 2801/2804 5SM BR OVC007
     FM280800 01008KT P6SM SCT250
     FM281500 03010KT P6SM BKN150
      AMD LTD TO CLD VIS AND WIND=

USA.gov is the U.S. government's official web portal to all federal, state and local government web resources and services.